createdAt,value
2019-05-05T00:01:00.442Z,89.40
2019-05-05T00:03:38.783Z,89.10
2019-05-05T00:06:06.418Z,89.00
2019-05-05T00:08:35.125Z,89.00
2019-05-05T00:11:15.385Z,89.10
2019-05-05T00:13:50.424Z,89.20
2019-05-05T00:16:37.402Z,89.80
2019-05-05T00:19:04.951Z,89.90
2019-05-05T00:21:34.238Z,89.60
2019-05-05T00:24:01.344Z,89.80
2019-05-05T00:26:28.547Z,89.70
2019-05-05T00:28:55.721Z,89.60
2019-05-05T00:31:24.226Z,89.60
2019-05-05T00:33:51.737Z,89.60
2019-05-05T00:36:19.027Z,89.50
2019-05-05T00:38:46.829Z,89.50
2019-05-05T00:41:14.831Z,89.50
2019-05-05T00:43:42.605Z,89.70
2019-05-05T00:46:21.846Z,89.80
2019-05-05T00:48:49.143Z,89.60
2019-05-05T00:51:16.613Z,89.40
2019-05-05T00:53:44.890Z,89.30
2019-05-05T00:56:14.302Z,88.60
2019-05-05T00:58:47.192Z,88.80
2019-05-05T01:01:27.511Z,88.80
2019-05-05T01:03:54.685Z,89.70
2019-05-05T01:06:25.579Z,89.70
2019-05-05T01:08:54.895Z,89.90
2019-05-05T01:11:21.965Z,90.40
2019-05-05T01:13:49.047Z,90.80
2019-05-05T01:16:16.294Z,90.90
2019-05-05T01:18:45.041Z,91.50
2019-05-05T01:21:12.348Z,91.40
2019-05-05T01:23:39.706Z,91.50
2019-05-05T01:26:07.264Z,91.40
2019-05-05T01:28:35.560Z,91.50
2019-05-05T01:31:06.817Z,91.40
2019-05-05T01:33:42.546Z,90.90
2019-05-05T01:36:11.969Z,90.80
2019-05-05T01:38:47.987Z,91.50
2019-05-05T01:41:34.671Z,91.50
2019-05-05T01:44:05.207Z,91.90
2019-05-05T01:46:32.682Z,92.00
2019-05-05T01:49:00.182Z,92.00
2019-05-05T01:51:27.382Z,91.90
2019-05-05T01:53:54.742Z,92.10
2019-05-05T01:56:22.132Z,92.20
2019-05-05T01:58:54.752Z,91.90
2019-05-05T02:01:22.076Z,92.00
2019-05-05T02:03:49.419Z,91.20
2019-05-05T02:06:16.718Z,91.30
2019-05-05T02:08:45.425Z,91.30
2019-05-05T02:11:12.826Z,91.40
2019-05-05T02:13:40.158Z,91.50
2019-05-05T02:16:07.308Z,90.70
2019-05-05T02:18:34.733Z,90.80
2019-05-05T02:21:06.803Z,91.40
2019-05-05T02:23:35.692Z,91.70
2019-05-05T02:26:04.618Z,91.90
2019-05-05T02:28:38.252Z,92.90
2019-05-05T02:31:36.092Z,93.60
2019-05-05T02:34:05.466Z,93.80
2019-05-05T02:36:35.279Z,93.80
2019-05-05T02:39:05.378Z,93.80
2019-05-05T02:41:34.863Z,93.50
2019-05-05T02:44:05.063Z,93.60
2019-05-05T02:46:38.882Z,93.60
2019-05-05T02:49:09.788Z,93.80
2019-05-05T02:51:38.195Z,93.70
2019-05-05T02:54:05.685Z,93.60
2019-05-05T02:56:43.618Z,93.40
2019-05-05T02:59:16.157Z,93.10
2019-05-05T03:01:50.041Z,93.10
2019-05-05T03:04:17.644Z,93.10
2019-05-05T03:06:51.700Z,92.90
2019-05-05T03:09:20.192Z,92.70
2019-05-05T03:11:48.381Z,92.20
2019-05-05T03:14:18.118Z,91.40
2019-05-05T03:16:45.933Z,91.50
2019-05-05T03:19:14.263Z,91.80
2019-05-05T03:21:44.037Z,91.80
2019-05-05T03:24:11.220Z,91.80
2019-05-05T03:26:44.390Z,91.90
2019-05-05T03:29:16.080Z,92.20
2019-05-05T03:31:45.925Z,92.10
2019-05-05T03:34:16.052Z,91.40
2019-05-05T03:36:45.557Z,91.90
2019-05-05T03:39:20.415Z,92.10
2019-05-05T03:42:06.427Z,92.00
2019-05-05T03:44:38.584Z,91.60
2019-05-05T03:47:09.486Z,91.90
2019-05-05T03:49:37.493Z,91.90
2019-05-05T03:52:05.290Z,92.30
2019-05-05T03:54:34.248Z,92.30
2019-05-05T03:57:08.018Z,92.40
2019-05-05T03:59:38.300Z,92.50
2019-05-05T04:02:14.172Z,92.50
2019-05-05T04:04:45.364Z,92.40
2019-05-05T04:07:13.987Z,92.20
2019-05-05T04:09:41.311Z,92.20
2019-05-05T04:12:08.508Z,92.30
2019-05-05T04:14:37.116Z,91.90
2019-05-05T04:17:24.377Z,91.80
2019-05-05T04:19:54.203Z,92.40
2019-05-05T04:22:23.641Z,92.30
2019-05-05T04:24:50.754Z,92.80
2019-05-05T04:27:18.106Z,93.00
2019-05-05T04:29:45.487Z,93.00
2019-05-05T04:32:14.089Z,93.20
2019-05-05T04:34:43.587Z,93.40
2019-05-05T04:37:10.922Z,93.30
2019-05-05T04:39:38.138Z,93.40
2019-05-05T04:42:05.465Z,93.40
2019-05-05T04:44:34.609Z,93.60
2019-05-05T04:47:08.985Z,94.30
2019-05-05T04:49:47.994Z,93.50
2019-05-05T04:52:15.938Z,93.30
2019-05-05T04:54:46.519Z,96.40
2019-05-05T04:57:14.967Z,96.60
2019-05-05T04:59:46.352Z,96.60
2019-05-05T05:02:34.100Z,96.60
2019-05-05T05:05:07.529Z,96.60
2019-05-05T05:07:35.065Z,96.60
2019-05-05T05:10:03.949Z,96.60
2019-05-05T05:12:31.407Z,96.60
2019-05-05T05:14:58.252Z,94.20
2019-05-05T05:17:33.835Z,89.50
2019-05-05T05:20:03.641Z,83.10
2019-05-05T05:22:30.357Z,80.60
2019-05-05T05:24:57.451Z,75.50
2019-05-05T05:27:24.862Z,76.20
2019-05-05T05:29:51.890Z,75.60
2019-05-05T05:32:18.961Z,72.60
2019-05-05T05:34:49.345Z,69.90
2019-05-05T05:37:16.289Z,67.90
2019-05-05T05:39:56.290Z,66.70
2019-05-05T05:42:24.161Z,66.00
2019-05-05T05:45:14.581Z,65.00
2019-05-05T05:48:19.465Z,63.30
2019-05-05T05:50:54.691Z,62.80
2019-05-05T05:53:23.898Z,61.70
2019-05-05T05:55:51.178Z,62.30
2019-05-05T05:58:18.367Z,62.40
2019-05-05T06:00:55.852Z,65.00
2019-05-05T06:03:24.564Z,61.70
2019-05-05T06:05:54.038Z,57.80
2019-05-05T06:08:21.653Z,58.90
2019-05-05T06:10:48.988Z,58.40
2019-05-05T06:13:16.285Z,56.10
2019-05-05T06:15:44.367Z,54.70
2019-05-05T06:18:13.719Z,56.70
2019-05-05T06:20:40.899Z,55.80
2019-05-05T06:23:08.099Z,52.60
2019-05-05T06:25:38.048Z,54.00
2019-05-05T06:28:04.869Z,52.40
2019-05-05T06:30:33.624Z,55.50
2019-05-05T06:33:01.209Z,53.10
2019-05-05T06:35:28.498Z,53.30
2019-05-05T06:37:55.795Z,52.40
2019-05-05T06:40:55.401Z,52.10
2019-05-05T06:43:35.832Z,52.40
2019-05-05T06:46:08.090Z,51.60
2019-05-05T06:48:35.398Z,51.70
2019-05-05T06:51:03.977Z,50.80
2019-05-05T06:53:31.190Z,49.60
2019-05-05T06:55:58.318Z,49.00
2019-05-05T06:58:25.542Z,46.70
2019-05-05T07:00:54.299Z,46.80
2019-05-05T07:03:21.415Z,44.90
2019-05-05T07:05:49.108Z,43.30
2019-05-05T07:08:16.663Z,43.20
2019-05-05T07:10:44.465Z,42.70
2019-05-05T07:13:13.841Z,42.80
2019-05-05T07:15:40.779Z,41.10
2019-05-05T07:18:08.470Z,39.20
2019-05-05T07:20:35.568Z,40.00
2019-05-05T07:23:05.209Z,40.70
2019-05-05T07:25:42.127Z,39.50
2019-05-05T07:28:01.066Z,40.00
2019-05-05T07:30:28.460Z,39.80
2019-05-05T07:32:55.628Z,39.20
2019-05-05T07:35:29.475Z,39.80
2019-05-05T07:37:56.793Z,40.60
2019-05-05T07:40:24.403Z,41.00
2019-05-05T07:42:53.910Z,40.20
2019-05-05T07:45:23.575Z,40.60
2019-05-05T07:47:50.070Z,41.90
2019-05-05T07:50:32.310Z,41.60
2019-05-05T07:52:46.999Z,39.80
2019-05-05T07:55:14.802Z,36.90
2019-05-05T07:57:43.463Z,36.40
2019-05-05T08:00:11.031Z,36.00
2019-05-05T08:02:38.434Z,35.40
2019-05-05T08:05:06.046Z,33.50
2019-05-05T08:07:34.010Z,32.80
2019-05-05T08:10:01.538Z,32.60
2019-05-05T08:12:29.903Z,31.50
2019-05-05T08:14:57.335Z,32.50
2019-05-05T08:17:53.921Z,35.50
2019-05-05T08:20:27.778Z,38.80
2019-05-05T08:22:55.318Z,41.40
2019-05-05T08:25:45.219Z,40.70
2019-05-05T08:28:25.770Z,41.70
2019-05-05T08:31:04.045Z,40.20
2019-05-05T08:33:33.647Z,38.90
2019-05-05T08:36:01.126Z,37.70
2019-05-05T08:38:28.535Z,37.60
2019-05-05T08:40:55.690Z,38.20
2019-05-05T08:43:24.402Z,38.80
2019-05-05T08:45:51.499Z,40.20
2019-05-05T08:48:18.783Z,39.00
2019-05-05T08:50:45.865Z,39.10
2019-05-05T08:53:13.876Z,39.20
2019-05-05T08:55:41.192Z,39.50
2019-05-05T08:58:08.275Z,41.80
2019-05-05T09:00:35.609Z,42.60
2019-05-05T09:03:04.059Z,43.30
2019-05-05T09:05:34.388Z,42.40
2019-05-05T09:08:04.301Z,40.20
2019-05-05T09:10:31.570Z,39.00
2019-05-05T09:12:59.111Z,36.40
2019-05-05T09:15:26.326Z,36.50
2019-05-05T09:17:54.537Z,37.10
2019-05-05T09:20:24.142Z,37.10
2019-05-05T09:22:53.366Z,35.30
2019-05-05T09:25:54.932Z,34.90
2019-05-05T09:28:26.521Z,36.10
2019-05-05T09:30:54.331Z,37.00
2019-05-05T09:33:22.048Z,38.10
2019-05-05T09:35:49.170Z,38.20
2019-05-05T09:38:16.912Z,37.40
2019-05-05T09:40:44.455Z,38.40
2019-05-05T09:43:12.027Z,38.80
2019-05-05T09:45:40.352Z,38.70
2019-05-05T09:48:07.881Z,39.20
2019-05-05T09:50:35.270Z,38.90
2019-05-05T09:53:04.181Z,38.80
2019-05-05T09:55:33.439Z,39.30
2019-05-05T09:58:00.542Z,40.80
2019-05-05T10:00:28.083Z,40.80
2019-05-05T10:02:55.301Z,41.10
2019-05-05T10:05:23.650Z,41.90
2019-05-05T10:07:54.543Z,41.50
2019-05-05T10:10:21.575Z,41.10
2019-05-05T10:12:52.174Z,40.90
2019-05-05T10:15:18.095Z,41.40
2019-05-05T10:17:45.682Z,39.10
2019-05-05T10:20:14.527Z,37.30
2019-05-05T10:22:43.861Z,35.00
2019-05-05T10:25:29.493Z,32.60
2019-05-05T10:27:57.399Z,30.70
2019-05-05T10:30:24.545Z,32.80
2019-05-05T10:32:51.904Z,33.30
2019-05-05T10:35:18.844Z,34.90
2019-05-05T10:37:46.088Z,36.20
2019-05-05T10:40:15.419Z,37.90
2019-05-05T10:42:48.783Z,38.40
2019-05-05T10:45:17.782Z,39.90
2019-05-05T10:47:45.120Z,41.80
2019-05-05T10:50:13.932Z,42.70
2019-05-05T10:52:44.258Z,42.20
2019-05-05T10:55:14.388Z,41.70
2019-05-05T10:57:41.105Z,40.40
2019-05-05T11:00:12.695Z,39.30
2019-05-05T11:02:38.722Z,39.20
2019-05-05T11:05:06.444Z,40.50
2019-05-05T11:07:34.128Z,41.30
2019-05-05T11:10:03.608Z,40.60
2019-05-05T11:12:31.122Z,40.80
2019-05-05T11:14:58.864Z,39.00
2019-05-05T11:17:26.266Z,37.20
2019-05-05T11:19:53.718Z,35.50
2019-05-05T11:22:20.831Z,35.60
2019-05-05T11:24:58.251Z,34.90
2019-05-05T11:27:18.091Z,35.40
2019-05-05T11:30:03.962Z,36.40
2019-05-05T11:32:49.094Z,36.90
2019-05-05T11:35:17.461Z,37.90
2019-05-05T11:37:44.634Z,38.70
2019-05-05T11:40:13.514Z,39.90
2019-05-05T11:42:42.157Z,40.10
2019-05-05T11:45:09.951Z,40.50
2019-05-05T11:47:40.750Z,39.70
2019-05-05T11:50:08.064Z,40.50
2019-05-05T11:52:35.215Z,39.70
2019-05-05T11:55:09.802Z,39.70
2019-05-05T11:57:32.891Z,39.30
2019-05-05T12:00:00.731Z,37.30
2019-05-05T12:02:27.881Z,33.30
2019-05-05T12:04:58.526Z,32.00
2019-05-05T12:07:25.922Z,32.40
2019-05-05T12:09:55.713Z,32.00
2019-05-05T12:12:22.965Z,30.70
2019-05-05T12:14:50.883Z,30.60
2019-05-05T12:17:34.219Z,31.30
2019-05-05T12:20:04.791Z,32.10
2019-05-05T12:22:34.054Z,33.20
2019-05-05T12:25:28.382Z,33.40
2019-05-05T12:28:01.688Z,33.90
2019-05-05T12:30:28.750Z,34.80
2019-05-05T12:32:55.884Z,34.50
2019-05-05T12:35:24.908Z,36.10
2019-05-05T12:37:53.802Z,36.60
2019-05-05T12:40:20.883Z,36.30
2019-05-05T12:42:48.094Z,35.90
2019-05-05T12:45:19.482Z,35.40
2019-05-05T12:48:04.863Z,36.50
2019-05-05T12:50:33.851Z,35.70
2019-05-05T12:53:01.144Z,35.70
2019-05-05T12:55:39.098Z,35.70
2019-05-05T12:57:57.677Z,35.20
2019-05-05T13:00:25.177Z,35.40
2019-05-05T13:02:53.870Z,34.70
2019-05-05T13:05:23.598Z,33.60
2019-05-05T13:07:51.206Z,32.10
2019-05-05T13:10:20.642Z,31.60
2019-05-05T13:12:48.082Z,32.00
2019-05-05T13:15:15.811Z,31.80
2019-05-05T13:17:43.797Z,32.60
2019-05-05T13:20:19.072Z,33.40
2019-05-05T13:23:01.641Z,33.20
2019-05-05T13:25:56.010Z,34.30
2019-05-05T13:28:17.216Z,35.30
2019-05-05T13:30:45.431Z,36.30
2019-05-05T13:33:14.149Z,36.20
2019-05-05T13:35:41.734Z,37.60
2019-05-05T13:38:09.218Z,38.10
2019-05-05T13:40:36.586Z,38.80
2019-05-05T13:43:04.297Z,38.20
2019-05-05T13:45:44.076Z,38.70
2019-05-05T13:48:13.945Z,39.20
2019-05-05T13:50:46.872Z,40.30
2019-05-05T13:53:14.423Z,41.20
2019-05-05T13:55:45.910Z,41.10
2019-05-05T13:58:11.100Z,43.30
2019-05-05T14:00:38.601Z,42.90
2019-05-05T14:03:05.817Z,43.10
2019-05-05T14:05:34.414Z,44.20
2019-05-05T14:08:04.038Z,44.30
2019-05-05T14:10:31.600Z,45.10
2019-05-05T14:12:58.930Z,44.00
2019-05-05T14:15:25.769Z,43.90
2019-05-05T14:17:54.393Z,42.90
2019-05-05T14:20:23.860Z,42.20
2019-05-05T14:22:51.406Z,41.80
2019-05-05T14:25:24.198Z,40.40
2019-05-05T14:27:54.019Z,38.10
2019-05-05T14:30:41.107Z,38.10
2019-05-05T14:33:12.367Z,39.50
2019-05-05T14:36:05.092Z,38.50
2019-05-05T14:38:38.199Z,36.60
2019-05-05T14:41:06.099Z,37.80
2019-05-05T14:43:34.505Z,37.90
2019-05-05T14:46:03.722Z,38.00
2019-05-05T14:48:37.074Z,37.40
2019-05-05T14:51:04.010Z,37.90
2019-05-05T14:53:31.632Z,38.70
2019-05-05T14:55:58.949Z,38.60
2019-05-05T14:58:26.227Z,39.20
2019-05-05T15:00:53.911Z,41.40
2019-05-05T15:03:21.350Z,41.50
2019-05-05T15:05:58.293Z,42.30
2019-05-05T15:08:51.622Z,42.40
2019-05-05T15:11:41.534Z,43.20
2019-05-05T15:14:08.471Z,42.10
2019-05-05T15:16:36.303Z,43.40
2019-05-05T15:19:04.457Z,42.80
2019-05-05T15:21:33.878Z,42.80
2019-05-05T15:24:01.447Z,43.30
2019-05-05T15:26:28.789Z,42.90
2019-05-05T15:28:59.292Z,45.00
2019-05-05T15:31:25.266Z,44.40
2019-05-05T15:33:53.579Z,43.80
2019-05-05T15:36:20.988Z,42.50
2019-05-05T15:38:47.951Z,41.90
2019-05-05T15:41:15.525Z,41.30
2019-05-05T15:43:44.145Z,41.20
2019-05-05T15:46:11.685Z,39.90
2019-05-05T15:48:39.107Z,40.70
2019-05-05T15:51:06.491Z,40.10
2019-05-05T15:53:33.969Z,39.40
2019-05-05T15:56:01.280Z,39.30
2019-05-05T15:58:28.265Z,40.00
2019-05-05T16:00:55.419Z,37.80
2019-05-05T16:03:22.843Z,38.30
2019-05-05T16:05:50.755Z,38.10
2019-05-05T16:08:18.111Z,38.20
2019-05-05T16:10:46.615Z,38.40
2019-05-05T16:13:14.005Z,39.30
2019-05-05T16:16:00.628Z,39.00
2019-05-05T16:19:05.624Z,39.10
2019-05-05T16:21:48.101Z,40.80
2019-05-05T16:24:18.112Z,40.60
2019-05-05T16:26:45.708Z,41.90
2019-05-05T16:29:14.813Z,42.20
2019-05-05T16:31:42.575Z,42.50
2019-05-05T16:34:10.148Z,42.60
2019-05-05T16:36:38.726Z,43.30
2019-05-05T16:39:06.912Z,42.90
2019-05-05T16:41:35.808Z,44.00
2019-05-05T16:44:03.908Z,44.20
2019-05-05T16:46:31.393Z,44.20
2019-05-05T16:48:58.392Z,44.10
2019-05-05T16:51:29.488Z,44.90
2019-05-05T16:53:58.985Z,44.60
2019-05-05T16:56:25.948Z,45.10
2019-05-05T16:58:56.220Z,44.00
2019-05-05T17:01:23.594Z,45.20
2019-05-05T17:03:50.867Z,46.70
2019-05-05T17:06:18.425Z,45.50
2019-05-05T17:08:45.653Z,45.50
2019-05-05T17:11:15.099Z,46.10
2019-05-05T17:13:50.760Z,47.60
2019-05-05T17:16:36.194Z,48.50
2019-05-05T17:19:11.255Z,48.70
2019-05-05T17:21:58.536Z,48.60
2019-05-05T17:24:26.226Z,49.00
2019-05-05T17:26:54.957Z,50.80
2019-05-05T17:29:23.566Z,50.90
2019-05-05T17:31:53.815Z,51.10
2019-05-05T17:34:21.300Z,51.50
2019-05-05T17:36:48.949Z,51.70
2019-05-05T17:39:16.716Z,52.20
2019-05-05T17:42:01.994Z,52.00
2019-05-05T17:44:34.507Z,52.50
2019-05-05T17:47:16.627Z,52.40
2019-05-05T17:50:03.999Z,52.20
2019-05-05T17:52:36.477Z,52.10
2019-05-05T17:55:24.217Z,53.30
2019-05-05T17:57:59.738Z,53.40
2019-05-05T18:00:21.550Z,53.30
2019-05-05T18:02:49.146Z,54.00
2019-05-05T18:05:16.624Z,54.60
2019-05-05T18:07:45.811Z,56.70
2019-05-05T18:10:20.094Z,57.70
2019-05-05T18:13:04.051Z,59.30
2019-05-05T18:15:50.549Z,60.40
2019-05-05T18:18:18.918Z,61.60
2019-05-05T18:20:46.233Z,62.20
2019-05-05T18:23:13.940Z,63.10
2019-05-05T18:25:41.253Z,63.40
2019-05-05T18:28:17.155Z,63.80
2019-05-05T18:30:38.118Z,64.00
2019-05-05T18:33:05.203Z,64.30
2019-05-05T18:35:33.925Z,64.20
2019-05-05T18:38:01.256Z,64.30
2019-05-05T18:40:28.260Z,64.30
2019-05-05T18:42:57.994Z,64.40
2019-05-05T18:45:25.236Z,65.00
2019-05-05T18:47:53.785Z,65.40
2019-05-05T18:50:21.252Z,65.60
2019-05-05T18:52:48.577Z,66.10
2019-05-05T18:55:15.644Z,66.60
2019-05-05T18:57:43.490Z,67.20
2019-05-05T19:00:17.096Z,67.50
2019-05-05T19:02:48.780Z,68.10
2019-05-05T19:05:31.407Z,68.30
2019-05-05T19:08:17.227Z,68.40
2019-05-05T19:10:44.584Z,68.60
2019-05-05T19:13:13.632Z,69.00
2019-05-05T19:15:41.196Z,69.50
2019-05-05T19:18:08.192Z,70.30
2019-05-05T19:20:55.409Z,70.90
2019-05-05T19:23:22.630Z,70.90
2019-05-05T19:25:51.166Z,70.30
2019-05-05T19:28:18.059Z,69.60
2019-05-05T19:30:45.302Z,69.70
2019-05-05T19:33:13.440Z,69.70
2019-05-05T19:35:45.109Z,69.30
2019-05-05T19:38:11.158Z,69.00
2019-05-05T19:40:39.241Z,69.80
2019-05-05T19:43:06.317Z,69.50
2019-05-05T19:45:34.415Z,69.70
2019-05-05T19:48:05.538Z,70.10
2019-05-05T19:50:35.907Z,70.70
2019-05-05T19:53:04.398Z,71.40
2019-05-05T19:55:33.784Z,72.10
2019-05-05T19:58:03.571Z,72.90
2019-05-05T20:00:31.266Z,73.40
2019-05-05T20:03:04.593Z,73.90
2019-05-05T20:05:28.269Z,74.30
2019-05-05T20:07:55.737Z,74.80
2019-05-05T20:10:22.771Z,75.30
2019-05-05T20:12:50.184Z,75.40
2019-05-05T20:15:24.836Z,75.60
2019-05-05T20:17:53.898Z,75.80
2019-05-05T20:20:21.148Z,76.00
2019-05-05T20:22:48.371Z,76.30
2019-05-05T20:25:15.619Z,76.30
2019-05-05T20:27:43.391Z,76.90
2019-05-05T20:30:10.783Z,77.00
2019-05-05T20:32:44.246Z,77.10
2019-05-05T20:35:21.180Z,77.40
2019-05-05T20:37:54.094Z,77.60
2019-05-05T20:40:24.449Z,77.60
2019-05-05T20:42:54.250Z,77.70
2019-05-05T20:45:24.703Z,77.80
2019-05-05T20:47:53.663Z,77.70
2019-05-05T20:50:22.175Z,77.70
2019-05-05T20:52:49.816Z,77.50
2019-05-05T20:55:17.215Z,77.50
2019-05-05T20:57:44.735Z,77.20
2019-05-05T21:00:14.630Z,77.10
2019-05-05T21:02:43.592Z,77.10
2019-05-05T21:05:10.723Z,77.20
2019-05-05T21:07:37.755Z,77.50
2019-05-05T21:10:05.025Z,77.70
2019-05-05T21:12:40.131Z,77.90
2019-05-05T21:15:01.541Z,78.10
2019-05-05T21:17:28.927Z,78.50
2019-05-05T21:22:50.112Z,78.90
2019-05-05T21:25:40.770Z,79.10
2019-05-05T21:28:08.148Z,79.80
2019-05-05T21:30:35.805Z,80.60
2019-05-05T21:33:04.407Z,81.00
2019-05-05T21:35:31.498Z,82.00
2019-05-05T21:37:58.820Z,82.90
2019-05-05T21:40:26.507Z,83.10
2019-05-05T21:42:54.145Z,83.20
2019-05-05T21:45:21.748Z,83.10
2019-05-05T21:47:49.495Z,83.50
2019-05-05T21:50:24.080Z,83.60
2019-05-05T21:52:57.393Z,83.80
2019-05-05T21:55:33.890Z,83.90
2019-05-05T21:58:25.341Z,84.00
2019-05-05T22:01:08.911Z,84.20
2019-05-05T22:03:37.082Z,84.50
2019-05-05T22:06:04.754Z,84.40
2019-05-05T22:08:33.654Z,84.40
2019-05-05T22:11:00.923Z,84.50
2019-05-05T22:13:29.144Z,84.40
2019-05-05T22:15:56.348Z,84.20
2019-05-05T22:18:23.429Z,84.00
2019-05-05T22:20:57.099Z,84.00
2019-05-05T22:23:26.906Z,84.00
2019-05-05T22:25:54.459Z,83.90
2019-05-05T22:28:21.892Z,83.90
2019-05-05T22:30:49.231Z,84.50
2019-05-05T22:33:16.769Z,84.80
2019-05-05T22:35:44.344Z,84.70
2019-05-05T22:38:13.585Z,84.90
2019-05-05T22:40:40.413Z,85.00
2019-05-05T22:43:07.539Z,85.40
2019-05-05T22:45:34.925Z,85.60
2019-05-05T22:48:04.504Z,85.50
2019-05-05T22:50:31.440Z,85.60
2019-05-05T22:52:58.866Z,85.50
2019-05-05T22:55:26.282Z,85.50
2019-05-05T22:57:54.379Z,85.70
2019-05-05T23:00:29.315Z,85.80
2019-05-05T23:03:04.329Z,85.80
2019-05-05T23:05:44.716Z,85.60
2019-05-05T23:08:13.568Z,85.50
2019-05-05T23:10:40.699Z,85.20
2019-05-05T23:13:07.884Z,85.30
2019-05-05T23:15:36.745Z,85.60
2019-05-05T23:18:25.646Z,85.70
2019-05-05T23:21:15.586Z,85.00
2019-05-05T23:23:59.846Z,84.70
2019-05-05T23:26:28.754Z,84.30
2019-05-05T23:28:55.891Z,84.10
2019-05-05T23:31:26.262Z,83.80
2019-05-05T23:33:54.833Z,83.40
2019-05-05T23:36:24.182Z,83.30
2019-05-05T23:38:51.616Z,82.90
2019-05-05T23:41:18.987Z,83.20
2019-05-05T23:43:46.759Z,83.20
2019-05-05T23:46:14.396Z,83.30
2019-05-05T23:48:41.847Z,83.30
2019-05-05T23:51:09.083Z,84.10
2019-05-05T23:53:36.531Z,84.80
2019-05-05T23:56:04.025Z,85.30
2019-05-05T23:58:31.292Z,85.50
